sensor_id;sensor_type;location;lat;lon;timestamp;temperature;humidity
40534;DHT22;26233;51.894;10.192;2023-04-01T00:01:26;12.30;50.70
40534;DHT22;26233;51.894;10.192;2023-04-01T00:03:53;12.30;50.70
40534;DHT22;26233;51.894;10.192;2023-04-01T00:06:22;12.30;50.70
40534;DHT22;26233;51.894;10.192;2023-04-01T00:08:49;12.30;50.70
40534;DHT22;26233;51.894;10.192;2023-04-01T00:11:18;12.30;50.70
40534;DHT22;26233;51.894;10.192;2023-04-01T00:13:47;12.40;50.70
40534;DHT22;26233;51.894;10.192;2023-04-01T00:16:14;12.30;50.70
40534;DHT22;26233;51.894;10.192;2023-04-01T00:18:41;12.30;50.70
40534;DHT22;26233;51.894;10.192;2023-04-01T00:21:08;12.30;50.70
40534;DHT22;26233;51.894;10.192;2023-04-01T00:23:35;12.30;50.70
40534;DHT22;26233;51.894;10.192;2023-04-01T00:26:03;12.30;50.70
40534;DHT22;26233;51.894;10.192;2023-04-01T00:28:34;12.30;51.30
40534;DHT22;26233;51.894;10.192;2023-04-01T00:31:04;12.30;50.70
40534;DHT22;26233;51.894;10.192;2023-04-01T00:33:33;12.30;50.70
40534;DHT22;26233;51.894;10.192;2023-04-01T00:36:07;12.40;50.80
40534;DHT22;26233;51.894;10.192;2023-04-01T00:38:35;12.30;50.70
40534;DHT22;26233;51.894;10.192;2023-04-01T00:41:03;12.30;50.70
40534;DHT22;26233;51.894;10.192;2023-04-01T00:43:33;12.30;50.70
40534;DHT22;26233;51.894;10.192;2023-04-01T00:46:01;12.30;50.70
40534;DHT22;26233;51.894;10.192;2023-04-01T00:48:34;12.30;50.80
40534;DHT22;26233;51.894;10.192;2023-04-01T00:51:05;12.30;50.80
40534;DHT22;26233;51.894;10.192;2023-04-01T00:53:37;12.30;50.80
40534;DHT22;26233;51.894;10.192;2023-04-01T00:56:11;12.30;50.80
40534;DHT22;26233;51.894;10.192;2023-04-01T00:58:46;12.30;50.80
40534;DHT22;26233;51.894;10.192;2023-04-01T01:01:15;12.30;50.90
40534;DHT22;26233;51.894;10.192;2023-04-01T01:03:42;12.30;50.90
40534;DHT22;26233;51.894;10.192;2023-04-01T01:06:17;12.20;50.80
40534;DHT22;26233;51.894;10.192;2023-04-01T01:11:53;12.20;50.90
40534;DHT22;26233;51.894;10.192;2023-04-01T01:14:36;12.20;50.90
40534;DHT22;26233;51.894;10.192;2023-04-01T01:17:13;12.20;51.00
40534;DHT22;26233;51.894;10.192;2023-04-01T01:20:18;12.10;50.90
40534;DHT22;26233;51.894;10.192;2023-04-01T01:23:28;12.10;51.10
40534;DHT22;26233;51.894;10.192;2023-04-01T01:26:33;12.10;51.10
40534;DHT22;26233;51.894;10.192;2023-04-01T01:32:20;12.10;51.00
40534;DHT22;26233;51.894;10.192;2023-04-01T01:35:05;12.00;51.00
40534;DHT22;26233;51.894;10.192;2023-04-01T01:37:40;12.00;51.00
40534;DHT22;26233;51.894;10.192;2023-04-01T01:40:12;12.00;51.00
40534;DHT22;26233;51.894;10.192;2023-04-01T01:42:43;12.00;51.20
40534;DHT22;26233;51.894;10.192;2023-04-01T01:45:14;12.00;51.20
40534;DHT22;26233;51.894;10.192;2023-04-01T01:47:45;12.00;51.20
40534;DHT22;26233;51.894;10.192;2023-04-01T01:50:14;12.00;51.20
40534;DHT22;26233;51.894;10.192;2023-04-01T01:52:41;12.00;51.30
40534;DHT22;26233;51.894;10.192;2023-04-01T01:55:25;12.00;51.20
40534;DHT22;26233;51.894;10.192;2023-04-01T01:57:56;12.00;51.40
40534;DHT22;26233;51.894;10.192;2023-04-01T02:00:26;12.00;51.30
40534;DHT22;26233;51.894;10.192;2023-04-01T02:02:54;12.00;51.30
40534;DHT22;26233;51.894;10.192;2023-04-01T02:05:26;12.00;51.40
40534;DHT22;26233;51.894;10.192;2023-04-01T02:08:00;12.00;51.50
40534;DHT22;26233;51.894;10.192;2023-04-01T02:10:34;12.00;51.40
40534;DHT22;26233;51.894;10.192;2023-04-01T02:13:08;12.00;51.30
40534;DHT22;26233;51.894;10.192;2023-04-01T02:15:44;12.00;51.40
40534;DHT22;26233;51.894;10.192;2023-04-01T02:18:13;12.00;51.30
40534;DHT22;26233;51.894;10.192;2023-04-01T02:20:43;12.10;51.40
40534;DHT22;26233;51.894;10.192;2023-04-01T02:23:11;12.10;51.50
40534;DHT22;26233;51.894;10.192;2023-04-01T02:25:40;12.10;51.30
40534;DHT22;26233;51.894;10.192;2023-04-01T02:28:09;12.10;51.40
40534;DHT22;26233;51.894;10.192;2023-04-01T02:30:38;12.10;51.40
40534;DHT22;26233;51.894;10.192;2023-04-01T02:33:07;12.10;51.40
40534;DHT22;26233;51.894;10.192;2023-04-01T02:35:35;12.00;51.30
40534;DHT22;26233;51.894;10.192;2023-04-01T02:38:05;12.00;51.30
40534;DHT22;26233;51.894;10.192;2023-04-01T02:40:45;12.10;51.50
40534;DHT22;26233;51.894;10.192;2023-04-01T02:43:14;12.00;51.40
40534;DHT22;26233;51.894;10.192;2023-04-01T02:45:44;12.00;51.30
40534;DHT22;26233;51.894;10.192;2023-04-01T02:48:11;12.00;51.40
40534;DHT22;26233;51.894;10.192;2023-04-01T02:50:39;12.00;51.40
40534;DHT22;26233;51.894;10.192;2023-04-01T02:53:08;12.00;51.40
40534;DHT22;26233;51.894;10.192;2023-04-01T02:55:35;12.00;51.40
40534;DHT22;26233;51.894;10.192;2023-04-01T02:58:02;12.00;51.40
40534;DHT22;26233;51.894;10.192;2023-04-01T03:00:29;12.00;51.50
40534;DHT22;26233;51.894;10.192;2023-04-01T03:02:56;12.10;51.40
40534;DHT22;26233;51.894;10.192;2023-04-01T03:05:23;12.00;51.30
40534;DHT22;26233;51.894;10.192;2023-04-01T03:07:51;12.00;51.30
40534;DHT22;26233;51.894;10.192;2023-04-01T03:10:19;12.00;51.30
40534;DHT22;26233;51.894;10.192;2023-04-01T03:12:48;12.00;51.40
40534;DHT22;26233;51.894;10.192;2023-04-01T03:15:15;12.00;51.30
40534;DHT22;26233;51.894;10.192;2023-04-01T03:17:43;12.00;51.40
40534;DHT22;26233;51.894;10.192;2023-04-01T03:20:13;12.00;51.30
40534;DHT22;26233;51.894;10.192;2023-04-01T03:22:41;12.00;51.30
40534;DHT22;26233;51.894;10.192;2023-04-01T03:25:09;12.00;51.30
40534;DHT22;26233;51.894;10.192;2023-04-01T03:27:40;12.00;51.40
40534;DHT22;26233;51.894;10.192;2023-04-01T03:30:09;12.00;51.50
40534;DHT22;26233;51.894;10.192;2023-04-01T03:32:39;12.00;51.40
40534;DHT22;26233;51.894;10.192;2023-04-01T03:35:06;12.00;51.30
40534;DHT22;26233;51.894;10.192;2023-04-01T03:37:35;12.00;51.40
40534;DHT22;26233;51.894;10.192;2023-04-01T03:40:02;12.00;51.40
40534;DHT22;26233;51.894;10.192;2023-04-01T03:42:30;12.00;51.50
40534;DHT22;26233;51.894;10.192;2023-04-01T03:44:59;12.00;51.40
40534;DHT22;26233;51.894;10.192;2023-04-01T03:47:26;12.00;51.40
40534;DHT22;26233;51.894;10.192;2023-04-01T03:49:53;12.00;51.30
40534;DHT22;26233;51.894;10.192;2023-04-01T03:52:20;12.00;51.30
40534;DHT22;26233;51.894;10.192;2023-04-01T03:54:47;12.00;51.30
40534;DHT22;26233;51.894;10.192;2023-04-01T03:57:15;11.90;51.20
40534;DHT22;26233;51.894;10.192;2023-04-01T03:59:42;12.00;51.90
40534;DHT22;26233;51.894;10.192;2023-04-01T04:02:10;11.90;51.20
40534;DHT22;26233;51.894;10.192;2023-04-01T04:04:37;11.90;51.30
40534;DHT22;26233;51.894;10.192;2023-04-01T04:07:04;11.90;51.30
40534;DHT22;26233;51.894;10.192;2023-04-01T04:09:31;11.90;51.40
40534;DHT22;26233;51.894;10.192;2023-04-01T04:11:59;11.90;51.40
40534;DHT22;26233;51.894;10.192;2023-04-01T04:14:26;11.90;51.40
40534;DHT22;26233;51.894;10.192;2023-04-01T04:16:53;11.80;51.40
40534;DHT22;26233;51.894;10.192;2023-04-01T04:19:22;11.80;51.40
40534;DHT22;26233;51.894;10.192;2023-04-01T04:21:49;11.90;51.50
40534;DHT22;26233;51.894;10.192;2023-04-01T04:24:16;11.80;51.40
40534;DHT22;26233;51.894;10.192;2023-04-01T04:26:45;11.80;51.40
40534;DHT22;26233;51.894;10.192;2023-04-01T04:29:12;11.90;51.50
40534;DHT22;26233;51.894;10.192;2023-04-01T04:31:39;11.80;51.50
40534;DHT22;26233;51.894;10.192;2023-04-01T04:34:06;11.80;51.40
40534;DHT22;26233;51.894;10.192;2023-04-01T04:36:34;11.80;51.50
40534;DHT22;26233;51.894;10.192;2023-04-01T04:39:01;11.80;51.50
40534;DHT22;26233;51.894;10.192;2023-04-01T04:41:28;11.80;51.50
40534;DHT22;26233;51.894;10.192;2023-04-01T04:43:56;11.80;51.60
40534;DHT22;26233;51.894;10.192;2023-04-01T04:46:24;11.80;51.50
40534;DHT22;26233;51.894;10.192;2023-04-01T04:48:51;11.80;51.50
40534;DHT22;26233;51.894;10.192;2023-04-01T04:51:20;11.80;51.50
40534;DHT22;26233;51.894;10.192;2023-04-01T04:53:49;11.90;51.60
40534;DHT22;26233;51.894;10.192;2023-04-01T04:56:18;11.90;51.60
40534;DHT22;26233;51.894;10.192;2023-04-01T04:58:45;11.90;51.60
40534;DHT22;26233;51.894;10.192;2023-04-01T05:01:14;11.90;51.60
40534;DHT22;26233;51.894;10.192;2023-04-01T05:03:42;11.90;51.50
40534;DHT22;26233;51.894;10.192;2023-04-01T05:06:12;11.80;51.40
40534;DHT22;26233;51.894;10.192;2023-04-01T05:08:40;11.80;51.50
40534;DHT22;26233;51.894;10.192;2023-04-01T05:11:13;11.80;51.50
40534;DHT22;26233;51.894;10.192;2023-04-01T05:13:41;11.80;51.60
40534;DHT22;26233;51.894;10.192;2023-04-01T05:16:10;11.80;51.60
40534;DHT22;26233;51.894;10.192;2023-04-01T05:18:38;11.80;51.60
40534;DHT22;26233;51.894;10.192;2023-04-01T05:21:07;11.70;51.60
40534;DHT22;26233;51.894;10.192;2023-04-01T05:23:36;11.70;51.60
40534;DHT22;26233;51.894;10.192;2023-04-01T05:26:06;11.80;51.60
40534;DHT22;26233;51.894;10.192;2023-04-01T05:28:35;11.70;51.60
40534;DHT22;26233;51.894;10.192;2023-04-01T05:31:05;11.70;51.60
40534;DHT22;26233;51.894;10.192;2023-04-01T05:33:36;11.70;51.60
40534;DHT22;26233;51.894;10.192;2023-04-01T05:36:08;11.70;51.60
40534;DHT22;26233;51.894;10.192;2023-04-01T05:38:36;11.70;51.60
40534;DHT22;26233;51.894;10.192;2023-04-01T05:41:03;11.70;51.70
40534;DHT22;26233;51.894;10.192;2023-04-01T05:43:31;11.70;51.80
40534;DHT22;26233;51.894;10.192;2023-04-01T05:45:59;11.70;51.80
40534;DHT22;26233;51.894;10.192;2023-04-01T05:48:26;11.70;51.80
40534;DHT22;26233;51.894;10.192;2023-04-01T05:50:53;11.70;51.70
40534;DHT22;26233;51.894;10.192;2023-04-01T05:53:20;11.70;51.70
40534;DHT22;26233;51.894;10.192;2023-04-01T05:55:47;11.70;51.70
40534;DHT22;26233;51.894;10.192;2023-04-01T05:58:15;11.70;51.70
40534;DHT22;26233;51.894;10.192;2023-04-01T06:00:42;11.70;51.70
40534;DHT22;26233;51.894;10.192;2023-04-01T06:03:13;11.70;51.70
40534;DHT22;26233;51.894;10.192;2023-04-01T06:05:42;11.80;51.80
40534;DHT22;26233;51.894;10.192;2023-04-01T06:08:12;11.70;51.70
40534;DHT22;26233;51.894;10.192;2023-04-01T06:10:55;11.70;51.80
40534;DHT22;26233;51.894;10.192;2023-04-01T06:13:47;11.70;51.90
40534;DHT22;26233;51.894;10.192;2023-04-01T06:16:38;11.70;51.90
40534;DHT22;26233;51.894;10.192;2023-04-01T06:19:22;11.80;52.00
40534;DHT22;26233;51.894;10.192;2023-04-01T06:22:15;11.80;52.00
40534;DHT22;26233;51.894;10.192;2023-04-01T06:25:22;11.80;52.10
40534;DHT22;26233;51.894;10.192;2023-04-01T06:31:30;11.90;52.50
40534;DHT22;26233;51.894;10.192;2023-04-01T06:34:24;12.00;52.40
40534;DHT22;26233;51.894;10.192;2023-04-01T06:37:15;12.00;52.30
40534;DHT22;26233;51.894;10.192;2023-04-01T06:40:12;12.10;52.30
40534;DHT22;26233;51.894;10.192;2023-04-01T06:43:08;12.10;52.20
40534;DHT22;26233;51.894;10.192;2023-04-01T06:45:46;12.10;52.20
40534;DHT22;26233;51.894;10.192;2023-04-01T06:48:31;12.20;52.10
40534;DHT22;26233;51.894;10.192;2023-04-01T06:51:16;12.20;52.10
40534;DHT22;26233;51.894;10.192;2023-04-01T06:53:53;12.30;52.10
40534;DHT22;26233;51.894;10.192;2023-04-01T06:56:24;12.30;52.00
40534;DHT22;26233;51.894;10.192;2023-04-01T06:58:55;12.20;51.90
40534;DHT22;26233;51.894;10.192;2023-04-01T07:01:27;12.20;51.90
40534;DHT22;26233;51.894;10.192;2023-04-01T07:03:59;12.20;52.00
40534;DHT22;26233;51.894;10.192;2023-04-01T07:06:31;12.20;51.90
40534;DHT22;26233;51.894;10.192;2023-04-01T07:09:05;12.30;52.00
40534;DHT22;26233;51.894;10.192;2023-04-01T07:11:35;12.30;51.90
40534;DHT22;26233;51.894;10.192;2023-04-01T07:14:09;12.30;51.90
40534;DHT22;26233;51.894;10.192;2023-04-01T07:16:44;12.20;51.70
40534;DHT22;26233;51.894;10.192;2023-04-01T07:19:18;12.20;51.80
40534;DHT22;26233;51.894;10.192;2023-04-01T07:21:52;12.30;52.00
40534;DHT22;26233;51.894;10.192;2023-04-01T07:24:25;12.30;52.10
40534;DHT22;26233;51.894;10.192;2023-04-01T07:26:55;12.30;52.20
40534;DHT22;26233;51.894;10.192;2023-04-01T07:29:23;12.40;52.30
40534;DHT22;26233;51.894;10.192;2023-04-01T07:32:09;12.40;52.30
40534;DHT22;26233;51.894;10.192;2023-04-01T07:34:52;12.50;52.10
40534;DHT22;26233;51.894;10.192;2023-04-01T07:37:41;12.50;52.10
40534;DHT22;26233;51.894;10.192;2023-04-01T07:40:21;12.60;52.30
40534;DHT22;26233;51.894;10.192;2023-04-01T07:43:01;12.60;52.40
40534;DHT22;26233;51.894;10.192;2023-04-01T07:45:47;12.70;52.60
40534;DHT22;26233;51.894;10.192;2023-04-01T07:48:26;12.80;52.50
40534;DHT22;26233;51.894;10.192;2023-04-01T07:51:02;12.90;52.30
40534;DHT22;26233;51.894;10.192;2023-04-01T07:53:37;12.90;52.20
40534;DHT22;26233;51.894;10.192;2023-04-01T07:56:10;13.00;52.40
40534;DHT22;26233;51.894;10.192;2023-04-01T07:58:48;13.10;52.60
40534;DHT22;26233;51.894;10.192;2023-04-01T08:01:26;13.20;53.00
40534;DHT22;26233;51.894;10.192;2023-04-01T08:04:21;13.50;53.90
40534;DHT22;26233;51.894;10.192;2023-04-01T08:06:59;13.70;54.50
40534;DHT22;26233;51.894;10.192;2023-04-01T08:09:39;14.10;55.00
40534;DHT22;26233;51.894;10.192;2023-04-01T08:12:21;14.50;54.70
40534;DHT22;26233;51.894;10.192;2023-04-01T08:15:04;14.80;54.00
40534;DHT22;26233;51.894;10.192;2023-04-01T08:17:42;15.10;53.70
40534;DHT22;26233;51.894;10.192;2023-04-01T08:20:27;15.30;53.00
40534;DHT22;26233;51.894;10.192;2023-04-01T08:23:00;15.40;51.60
40534;DHT22;26233;51.894;10.192;2023-04-01T08:25:39;15.40;51.50
40534;DHT22;26233;51.894;10.192;2023-04-01T08:28:13;15.30;51.20
40534;DHT22;26233;51.894;10.192;2023-04-01T08:30:48;15.30;50.90
40534;DHT22;26233;51.894;10.192;2023-04-01T08:33:21;15.20;50.80
40534;DHT22;26233;51.894;10.192;2023-04-01T08:35:55;15.10;50.60
40534;DHT22;26233;51.894;10.192;2023-04-01T08:38:27;15.00;50.40
40534;DHT22;26233;51.894;10.192;2023-04-01T08:44:14;14.70;50.90
40534;DHT22;26233;51.894;10.192;2023-04-01T08:47:03;14.60;50.20
40534;DHT22;26233;51.894;10.192;2023-04-01T08:53:23;14.30;50.10
40534;DHT22;26233;51.894;10.192;2023-04-01T08:56:06;14.20;50.30
40534;DHT22;26233;51.894;10.192;2023-04-01T08:59:06;14.10;50.40
40534;DHT22;26233;51.894;10.192;2023-04-01T09:01:58;14.10;50.50
40534;DHT22;26233;51.894;10.192;2023-04-01T09:05:06;14.00;50.60
40534;DHT22;26233;51.894;10.192;2023-04-01T09:07:53;14.00;50.90
40534;DHT22;26233;51.894;10.192;2023-04-01T09:10:39;14.10;51.00
40534;DHT22;26233;51.894;10.192;2023-04-01T09:13:24;14.10;51.00
40534;DHT22;26233;51.894;10.192;2023-04-01T09:16:16;14.10;50.80
40534;DHT22;26233;51.894;10.192;2023-04-01T09:19:24;14.00;50.70
40534;DHT22;26233;51.894;10.192;2023-04-01T09:22:09;14.00;50.70
40534;DHT22;26233;51.894;10.192;2023-04-01T09:28:05;14.00;50.90
40534;DHT22;26233;51.894;10.192;2023-04-01T09:31:08;14.00;50.90
40534;DHT22;26233;51.894;10.192;2023-04-01T09:37:19;14.00;51.00
40534;DHT22;26233;51.894;10.192;2023-04-01T09:40:09;14.10;51.20
40534;DHT22;26233;51.894;10.192;2023-04-01T09:43:02;14.20;51.30
40534;DHT22;26233;51.894;10.192;2023-04-01T09:45:48;14.20;51.20
40534;DHT22;26233;51.894;10.192;2023-04-01T09:48:43;14.30;51.40
40534;DHT22;26233;51.894;10.192;2023-04-01T09:51:28;14.40;51.20
40534;DHT22;26233;51.894;10.192;2023-04-01T09:54:07;14.40;51.30
40534;DHT22;26233;51.894;10.192;2023-04-01T10:00:20;14.60;51.20
40534;DHT22;26233;51.894;10.192;2023-04-01T10:03:41;14.60;51.10
40534;DHT22;26233;51.894;10.192;2023-04-01T10:10:09;14.60;50.90
40534;DHT22;26233;51.894;10.192;2023-04-01T10:13:37;14.60;51.10
40534;DHT22;26233;51.894;10.192;2023-04-01T10:17:00;14.60;51.00
40534;DHT22;26233;51.894;10.192;2023-04-01T10:20:12;14.60;51.10
40534;DHT22;26233;51.894;10.192;2023-04-01T10:23:16;14.70;51.30
40534;DHT22;26233;51.894;10.192;2023-04-01T10:29:51;14.80;52.20
40534;DHT22;26233;51.894;10.192;2023-04-01T10:33:02;14.90;51.50
40534;DHT22;26233;51.894;10.192;2023-04-01T10:36:35;14.90;51.50
40534;DHT22;26233;51.894;10.192;2023-04-01T10:39:43;15.00;51.40
40534;DHT22;26233;51.894;10.192;2023-04-01T10:46:11;15.10;51.10
40534;DHT22;26233;51.894;10.192;2023-04-01T10:49:25;15.20;50.90
40534;DHT22;26233;51.894;10.192;2023-04-01T10:52:20;15.20;50.80
40534;DHT22;26233;51.894;10.192;2023-04-01T10:55:19;15.10;50.70
40534;DHT22;26233;51.894;10.192;2023-04-01T11:01:21;15.10;51.00
40534;DHT22;26233;51.894;10.192;2023-04-01T11:04:31;15.20;51.20
40534;DHT22;26233;51.894;10.192;2023-04-01T11:07:44;15.20;50.80
40534;DHT22;26233;51.894;10.192;2023-04-01T11:11:04;15.20;50.70
40534;DHT22;26233;51.894;10.192;2023-04-01T11:14:24;15.20;50.70
40534;DHT22;26233;51.894;10.192;2023-04-01T11:17:35;15.20;50.60
40534;DHT22;26233;51.894;10.192;2023-04-01T11:20:38;15.20;50.70
40534;DHT22;26233;51.894;10.192;2023-04-01T11:26:27;15.20;51.00
40534;DHT22;26233;51.894;10.192;2023-04-01T11:29:15;15.20;51.40
40534;DHT22;26233;51.894;10.192;2023-04-01T11:31:55;15.20;50.50
40534;DHT22;26233;51.894;10.192;2023-04-01T11:34:44;15.20;50.80
40534;DHT22;26233;51.894;10.192;2023-04-01T11:37:31;15.20;50.80
40534;DHT22;26233;51.894;10.192;2023-04-01T11:40:14;15.30;50.90
40534;DHT22;26233;51.894;10.192;2023-04-01T11:42:53;15.30;51.00
40534;DHT22;26233;51.894;10.192;2023-04-01T11:45:33;15.40;51.20
40534;DHT22;26233;51.894;10.192;2023-04-01T11:48:23;15.50;51.20
40534;DHT22;26233;51.894;10.192;2023-04-01T11:51:20;15.50;51.10
40534;DHT22;26233;51.894;10.192;2023-04-01T11:54:04;15.60;51.20
40534;DHT22;26233;51.894;10.192;2023-04-01T11:56:51;15.70;51.20
40534;DHT22;26233;51.894;10.192;2023-04-01T11:59:55;15.70;51.10
40534;DHT22;26233;51.894;10.192;2023-04-01T12:02:34;15.80;50.90
40534;DHT22;26233;51.894;10.192;2023-04-01T12:05:38;15.80;51.50
40534;DHT22;26233;51.894;10.192;2023-04-01T12:08:28;15.80;50.70
40534;DHT22;26233;51.894;10.192;2023-04-01T12:11:04;15.80;50.60
40534;DHT22;26233;51.894;10.192;2023-04-01T12:13:42;15.80;50.70
40534;DHT22;26233;51.894;10.192;2023-04-01T12:16:27;15.80;50.50
40534;DHT22;26233;51.894;10.192;2023-04-01T12:19:08;15.80;50.50
40534;DHT22;26233;51.894;10.192;2023-04-01T12:21:45;15.80;50.60
40534;DHT22;26233;51.894;10.192;2023-04-01T12:24:45;15.80;50.30
40534;DHT22;26233;51.894;10.192;2023-04-01T12:27:23;15.70;49.80
40534;DHT22;26233;51.894;10.192;2023-04-01T12:33:18;15.60;49.70
40534;DHT22;26233;51.894;10.192;2023-04-01T12:36:00;15.60;49.90
40534;DHT22;26233;51.894;10.192;2023-04-01T12:38:44;15.50;49.80
40534;DHT22;26233;51.894;10.192;2023-04-01T12:41:32;15.50;49.80
40534;DHT22;26233;51.894;10.192;2023-04-01T12:44:17;15.40;49.90
40534;DHT22;26233;51.894;10.192;2023-04-01T12:47:16;15.40;50.10
40534;DHT22;26233;51.894;10.192;2023-04-01T12:50:23;15.40;50.20
40534;DHT22;26233;51.894;10.192;2023-04-01T12:53:11;15.30;50.30
40534;DHT22;26233;51.894;10.192;2023-04-01T12:55:48;15.40;50.50
40534;DHT22;26233;51.894;10.192;2023-04-01T12:58:39;15.40;50.70
40534;DHT22;26233;51.894;10.192;2023-04-01T13:01:29;15.40;50.70
40534;DHT22;26233;51.894;10.192;2023-04-01T13:04:32;15.50;50.90
40534;DHT22;26233;51.894;10.192;2023-04-01T13:07:22;15.50;50.50
40534;DHT22;26233;51.894;10.192;2023-04-01T13:10:06;15.60;50.60
40534;DHT22;26233;51.894;10.192;2023-04-01T13:12:59;15.50;50.40
40534;DHT22;26233;51.894;10.192;2023-04-01T13:15:41;15.50;50.20
40534;DHT22;26233;51.894;10.192;2023-04-01T13:18:19;15.50;50.40
40534;DHT22;26233;51.894;10.192;2023-04-01T13:21:01;15.50;50.40
40534;DHT22;26233;51.894;10.192;2023-04-01T13:23:53;15.50;51.00
40534;DHT22;26233;51.894;10.192;2023-04-01T13:26:27;15.40;50.30
40534;DHT22;26233;51.894;10.192;2023-04-01T13:29:00;15.40;50.30
40534;DHT22;26233;51.894;10.192;2023-04-01T13:31:42;15.40;50.20
40534;DHT22;26233;51.894;10.192;2023-04-01T13:34:26;15.30;50.20
40534;DHT22;26233;51.894;10.192;2023-04-01T13:37:14;15.30;50.30
40534;DHT22;26233;51.894;10.192;2023-04-01T13:40:05;15.20;50.10
40534;DHT22;26233;51.894;10.192;2023-04-01T13:42:47;15.20;50.10
40534;DHT22;26233;51.894;10.192;2023-04-01T13:45:19;15.10;50.00
40534;DHT22;26233;51.894;10.192;2023-04-01T13:48:08;15.10;50.00
40534;DHT22;26233;51.894;10.192;2023-04-01T13:51:04;15.00;49.90
40534;DHT22;26233;51.894;10.192;2023-04-01T13:53:55;15.00;50.10
40534;DHT22;26233;51.894;10.192;2023-04-01T13:56:34;14.90;50.30
40534;DHT22;26233;51.894;10.192;2023-04-01T14:02:27;14.90;50.60
40534;DHT22;26233;51.894;10.192;2023-04-01T14:05:40;15.00;51.00
40534;DHT22;26233;51.894;10.192;2023-04-01T14:08:29;15.00;50.90
40534;DHT22;26233;51.894;10.192;2023-04-01T14:11:13;15.00;50.90
40534;DHT22;26233;51.894;10.192;2023-04-01T14:13:52;15.10;50.90
40534;DHT22;26233;51.894;10.192;2023-04-01T14:16:55;15.10;51.00
40534;DHT22;26233;51.894;10.192;2023-04-01T14:20:00;15.10;50.90
40534;DHT22;26233;51.894;10.192;2023-04-01T14:22:38;15.20;51.00
40534;DHT22;26233;51.894;10.192;2023-04-01T14:25:25;15.20;51.10
40534;DHT22;26233;51.894;10.192;2023-04-01T14:28:09;15.20;51.00
40534;DHT22;26233;51.894;10.192;2023-04-01T14:31:12;15.30;50.90
40534;DHT22;26233;51.894;10.192;2023-04-01T14:33:53;15.30;50.50
40534;DHT22;26233;51.894;10.192;2023-04-01T14:36:35;15.40;50.80
40534;DHT22;26233;51.894;10.192;2023-04-01T14:39:26;15.40;50.90
40534;DHT22;26233;51.894;10.192;2023-04-01T14:42:14;15.40;50.70
40534;DHT22;26233;51.894;10.192;2023-04-01T14:45:02;15.50;50.90
40534;DHT22;26233;51.894;10.192;2023-04-01T14:47:50;15.40;50.70
40534;DHT22;26233;51.894;10.192;2023-04-01T14:50:21;15.50;50.50
40534;DHT22;26233;51.894;10.192;2023-04-01T14:52:57;15.40;50.50
40534;DHT22;26233;51.894;10.192;2023-04-01T14:55:31;15.40;50.50
40534;DHT22;26233;51.894;10.192;2023-04-01T14:58:08;15.40;50.50
40534;DHT22;26233;51.894;10.192;2023-04-01T15:00:52;15.40;50.50
40534;DHT22;26233;51.894;10.192;2023-04-01T15:03:32;15.30;50.40
40534;DHT22;26233;51.894;10.192;2023-04-01T15:06:30;15.30;50.30
40534;DHT22;26233;51.894;10.192;2023-04-01T15:09:10;15.30;50.00
40534;DHT22;26233;51.894;10.192;2023-04-01T15:11:51;15.10;49.90
40534;DHT22;26233;51.894;10.192;2023-04-01T15:14:51;15.10;50.00
40534;DHT22;26233;51.894;10.192;2023-04-01T15:17:46;15.00;50.10
40534;DHT22;26233;51.894;10.192;2023-04-01T15:20:32;15.00;50.20
40534;DHT22;26233;51.894;10.192;2023-04-01T15:23:15;14.90;50.20
40534;DHT22;26233;51.894;10.192;2023-04-01T15:29:01;14.80;50.10
40534;DHT22;26233;51.894;10.192;2023-04-01T15:31:48;14.80;50.10
40534;DHT22;26233;51.894;10.192;2023-04-01T15:34:30;14.70;50.10
40534;DHT22;26233;51.894;10.192;2023-04-01T15:37:02;14.70;50.20
40534;DHT22;26233;51.894;10.192;2023-04-01T15:39:45;14.60;50.20
40534;DHT22;26233;51.894;10.192;2023-04-01T15:42:36;14.60;50.40
40534;DHT22;26233;51.894;10.192;2023-04-01T15:45:22;14.50;50.50
40534;DHT22;26233;51.894;10.192;2023-04-01T15:48:06;14.40;50.50
40534;DHT22;26233;51.894;10.192;2023-04-01T15:50:49;14.40;50.60
40534;DHT22;26233;51.894;10.192;2023-04-01T15:53:35;14.40;50.70
40534;DHT22;26233;51.894;10.192;2023-04-01T15:56:24;14.40;50.90
40534;DHT22;26233;51.894;10.192;2023-04-01T15:59:02;14.30;50.90
40534;DHT22;26233;51.894;10.192;2023-04-01T16:01:44;14.40;51.10
40534;DHT22;26233;51.894;10.192;2023-04-01T16:04:54;14.40;51.20
40534;DHT22;26233;51.894;10.192;2023-04-01T16:07:38;14.40;51.20
40534;DHT22;26233;51.894;10.192;2023-04-01T16:10:21;14.30;51.10
40534;DHT22;26233;51.894;10.192;2023-04-01T16:13:11;14.40;51.20
40534;DHT22;26233;51.894;10.192;2023-04-01T16:15:50;14.30;51.20
40534;DHT22;26233;51.894;10.192;2023-04-01T16:21:33;14.30;51.20
40534;DHT22;26233;51.894;10.192;2023-04-01T16:24:10;14.30;51.20
40534;DHT22;26233;51.894;10.192;2023-04-01T16:26:49;14.30;51.10
40534;DHT22;26233;51.894;10.192;2023-04-01T16:29:24;14.30;51.00
40534;DHT22;26233;51.894;10.192;2023-04-01T16:31:58;14.20;50.80
40534;DHT22;26233;51.894;10.192;2023-04-01T16:34:46;14.20;50.70
40534;DHT22;26233;51.894;10.192;2023-04-01T16:37:19;14.10;50.80
40534;DHT22;26233;51.894;10.192;2023-04-01T16:39:53;14.10;50.80
40534;DHT22;26233;51.894;10.192;2023-04-01T16:42:37;14.00;50.60
40534;DHT22;26233;51.894;10.192;2023-04-01T16:45:19;13.90;50.60
40534;DHT22;26233;51.894;10.192;2023-04-01T16:47:55;13.90;50.70
40534;DHT22;26233;51.894;10.192;2023-04-01T16:50:24;13.90;50.70
40534;DHT22;26233;51.894;10.192;2023-04-01T16:52:59;13.80;50.60
40534;DHT22;26233;51.894;10.192;2023-04-01T16:55:43;13.80;50.60
40534;DHT22;26233;51.894;10.192;2023-04-01T16:58:20;13.70;50.60
40534;DHT22;26233;51.894;10.192;2023-04-01T17:01:00;13.70;50.70
40534;DHT22;26233;51.894;10.192;2023-04-01T17:03:32;13.60;50.60
40534;DHT22;26233;51.894;10.192;2023-04-01T17:06:14;13.50;50.60
40534;DHT22;26233;51.894;10.192;2023-04-01T17:09:00;13.50;50.80
40534;DHT22;26233;51.894;10.192;2023-04-01T17:11:39;13.40;50.70
40534;DHT22;26233;51.894;10.192;2023-04-01T17:14:17;13.40;50.70
40534;DHT22;26233;51.894;10.192;2023-04-01T17:16:56;13.40;50.70
40534;DHT22;26233;51.894;10.192;2023-04-01T17:19:46;13.30;50.60
40534;DHT22;26233;51.894;10.192;2023-04-01T17:22:27;13.30;50.70
40534;DHT22;26233;51.894;10.192;2023-04-01T17:25:20;13.20;50.40
40534;DHT22;26233;51.894;10.192;2023-04-01T17:27:59;13.10;50.40
40534;DHT22;26233;51.894;10.192;2023-04-01T17:30:34;13.00;50.30